Time;durP1;ratioP1;P1;durP2;ratioP2;P2;SDS_P1;SDS_P2;PMS_P1;PMS_P2;Temp;Humidity;BMP_temperature;BMP_pressure;BME280_temperature;BME280_humidity;BME280_pressure;Samples;Min_cycle;Max_cycle;Signal;HPM_P1;HPM_P2
2022/04/29 00:00:59;;;;;;;15.00;7.25;;;8.90;87.60;;;;;;4915849;29;20031;-74
2022/04/29 00:03:25;;;;;;;15.70;6.93;;;8.90;88.20;;;;;;4921002;29;20031;-75
2022/04/29 00:05:51;;;;;;;11.85;6.70;;;8.90;87.80;;;;;;4911252;29;20626;-75
2022/04/29 00:08:17;;;;;;;14.18;7.03;;;8.90;87.70;;;;;;4915707;29;20071;-75
2022/04/29 00:10:44;;;;;;;17.48;7.25;;;8.90;88.10;;;;;;4920795;29;20035;-75
2022/04/29 00:13:12;;;;;;;9.95;6.88;;;8.90;87.90;;;;;;4915804;29;20039;-75
2022/04/29 00:15:38;;;;;;;18.90;7.60;;;8.90;87.80;;;;;;4918783;29;20078;-75
2022/04/29 00:18:04;;;;;;;9.80;6.50;;;8.80;88.30;;;;;;4934208;29;20126;-75
2022/04/29 00:20:30;;;;;;;15.40;6.78;;;8.80;88.60;;;;;;4921220;29;20047;-75
2022/04/29 00:22:55;;;;;;;13.70;6.57;;;8.80;88.60;;;;;;4917608;29;20444;-74
2022/04/29 00:25:21;;;;;;;10.50;6.88;;;8.80;88.70;;;;;;4916554;29;20575;-75
2022/04/29 00:27:47;;;;;;;13.43;6.80;;;8.80;88.10;;;;;;4917334;29;20832;-75
2022/04/29 00:30:13;;;;;;;14.25;6.70;;;8.80;89.70;;;;;;4925374;28;20048;-75
2022/04/29 00:32:40;;;;;;;13.27;8.55;;;8.70;89.60;;;;;;4913909;29;20122;-75
2022/04/29 00:35:08;;;;;;;14.02;6.88;;;8.80;89.50;;;;;;4914414;29;20615;-74
2022/04/29 00:37:45;;;;;;;13.85;7.28;;;8.70;88.70;;;;;;4919195;29;20050;-75
2022/04/29 00:40:14;;;;;;;11.45;6.85;;;8.80;88.20;;;;;;4915466;29;20101;-74
2022/04/29 00:42:39;;;;;;;12.45;7.00;;;8.80;88.10;;;;;;4910649;29;20443;-75
2022/04/29 00:45:05;;;;;;;13.57;6.55;;;8.70;88.00;;;;;;4918038;29;20055;-75
2022/04/29 00:47:31;;;;;;;13.10;6.20;;;8.80;86.70;;;;;;4917039;29;20039;-75
2022/04/29 00:49:56;;;;;;;13.50;6.97;;;8.80;86.60;;;;;;4913792;29;20095;-75
2022/04/29 00:52:24;;;;;;;12.05;6.32;;;8.80;86.40;;;;;;4916804;29;20574;-75
2022/04/29 00:54:57;;;;;;;10.40;6.13;;;8.70;88.20;;;;;;4924316;29;20567;-74
2022/04/29 00:57:28;;;;;;;11.65;6.85;;;8.70;88.60;;;;;;4915428;29;20051;-75
2022/04/29 01:00:03;;;;;;;13.60;7.00;;;8.70;88.70;;;;;;4917027;29;20028;-75
2022/04/29 01:02:30;;;;;;;15.18;7.20;;;8.70;89.50;;;;;;4918558;29;20058;-75
2022/04/29 01:05:05;;;;;;;11.90;7.05;;;8.60;89.30;;;;;;4922133;29;20038;-75
2022/04/29 01:07:32;;;;;;;15.13;7.00;;;8.60;90.30;;;;;;4905614;29;20039;-75
2022/04/29 01:09:58;;;;;;;9.02;6.18;;;8.60;90.20;;;;;;4912463;29;20598;-74
2022/04/29 01:12:28;;;;;;;11.65;6.22;;;8.60;89.70;;;;;;4904972;29;20035;-75
2022/04/29 01:15:01;;;;;;;13.95;6.38;;;8.60;89.70;;;;;;4919946;28;20524;-75
2022/04/29 01:17:26;;;;;;;10.02;6.38;;;8.60;90.10;;;;;;4929480;29;20475;-75
2022/04/29 01:19:52;;;;;;;14.55;6.40;;;8.60;89.60;;;;;;4918368;29;20051;-75
2022/04/29 01:22:17;;;;;;;17.92;7.90;;;8.60;89.60;;;;;;4913072;29;20036;-74
2022/04/29 01:24:46;;;;;;;11.30;6.78;;;8.60;90.00;;;;;;4917617;29;20036;-74
2022/04/29 01:27:12;;;;;;;13.27;6.72;;;8.60;89.80;;;;;;4915480;29;20403;-75
2022/04/29 01:29:44;;;;;;;17.33;7.32;;;8.60;90.00;;;;;;4916743;29;20076;-74
2022/04/29 01:32:09;;;;;;;12.05;6.63;;;8.50;90.10;;;;;;4911484;29;20149;-75
2022/04/29 01:34:36;;;;;;;9.38;5.95;;;8.40;90.10;;;;;;4913434;29;20043;-75
2022/04/29 01:37:02;;;;;;;11.75;6.43;;;8.40;90.50;;;;;;4915322;29;20122;-75
2022/04/29 01:39:28;;;;;;;13.88;6.55;;;8.40;90.80;;;;;;4917270;29;20584;-75
2022/04/29 01:41:53;;;;;;;13.75;6.15;;;8.40;91.10;;;;;;4917962;29;20046;-75
2022/04/29 01:44:19;;;;;;;9.60;6.22;;;8.40;90.80;;;;;;4899111;29;20035;-74
2022/04/29 01:46:46;;;;;;;14.55;7.38;;;8.40;90.80;;;;;;4913879;29;20611;-75
2022/04/29 01:49:12;;;;;;;13.98;6.72;;;8.40;90.70;;;;;;4902461;29;20516;-75
2022/04/29 01:51:38;;;;;;;12.77;6.30;;;8.40;91.00;;;;;;4908869;29;20381;-75
2022/04/29 01:54:09;;;;;;;9.60;6.65;;;8.40;91.10;;;;;;4911855;29;20042;-75
2022/04/29 01:56:35;;;;;;;13.27;7.30;;;8.30;91.30;;;;;;4914166;29;20669;-75
2022/04/29 01:59:01;;;;;;;10.98;6.03;;;8.30;91.00;;;;;;4911928;29;20051;-75
2022/04/29 02:01:27;;;;;;;13.30;6.30;;;8.30;90.80;;;;;;4912696;29;20031;-75
2022/04/29 02:03:54;;;;;;;7.30;6.10;;;8.20;91.20;;;;;;4916002;29;20476;-75
2022/04/29 02:06:21;;;;;;;12.63;7.03;;;8.20;91.20;;;;;;4915767;29;20378;-75
2022/04/29 02:08:46;;;;;;;11.52;6.88;;;8.10;91.40;;;;;;4911705;29;20032;-75
2022/04/29 02:11:12;;;;;;;13.38;7.03;;;7.90;91.60;;;;;;4919540;29;20039;-75
2022/04/29 02:13:38;;;;;;;11.75;6.07;;;7.90;91.80;;;;;;4899431;29;20092;-75
2022/04/29 02:16:04;;;;;;;12.23;6.20;;;7.80;92.00;;;;;;4909018;29;20054;-74
2022/04/29 02:18:30;;;;;;;12.50;6.57;;;7.70;92.20;;;;;;4915853;29;20226;-75
2022/04/29 02:20:56;;;;;;;16.00;7.72;;;7.60;92.50;;;;;;4915487;29;20304;-75
2022/04/29 02:23:22;;;;;;;14.05;6.88;;;7.50;92.60;;;;;;4917225;28;20057;-75
2022/04/29 02:25:47;;;;;;;12.05;6.93;;;7.40;92.80;;;;;;4910408;29;20658;-75
2022/04/29 02:28:13;;;;;;;12.75;7.65;;;7.30;92.90;;;;;;4913467;28;20411;-74
2022/04/29 02:30:40;;;;;;;12.70;7.95;;;7.10;93.00;;;;;;4912967;29;20032;-75
2022/04/29 02:33:07;;;;;;;12.85;7.60;;;7.00;93.40;;;;;;4918552;29;20043;-74
2022/04/29 02:35:32;;;;;;;12.45;7.28;;;6.90;93.70;;;;;;4915165;29;20035;-75
2022/04/29 02:37:58;;;;;;;16.33;8.02;;;6.80;94.20;;;;;;4927427;29;20173;-75
2022/04/29 02:40:24;;;;;;;15.73;8.25;;;6.70;94.20;;;;;;4905669;29;20435;-75
2022/04/29 02:42:50;;;;;;;16.08;8.02;;;6.70;94.40;;;;;;4916180;29;20097;-74
2022/04/29 02:45:16;;;;;;;20.27;7.85;;;6.60;94.60;;;;;;4916512;29;20023;-75
2022/04/29 02:47:42;;;;;;;16.52;7.78;;;6.60;94.70;;;;;;4921515;29;20375;-75
2022/04/29 02:50:08;;;;;;;16.48;7.88;;;6.50;94.60;;;;;;4918862;29;20070;-75
2022/04/29 02:52:33;;;;;;;13.57;7.30;;;6.40;94.60;;;;;;4920676;29;20035;-75
2022/04/29 02:54:59;;;;;;;15.38;8.55;;;6.30;95.00;;;;;;4917775;29;20657;-75
2022/04/29 02:57:25;;;;;;;15.32;8.65;;;6.30;95.00;;;;;;4911579;29;20032;-75
2022/04/29 02:59:50;;;;;;;13.98;8.20;;;6.20;95.50;;;;;;4919931;29;20027;-75
2022/04/29 03:02:16;;;;;;;16.60;7.93;;;6.30;95.70;;;;;;4919935;29;20134;-75
2022/04/29 03:04:42;;;;;;;16.60;8.55;;;6.40;95.90;;;;;;4914987;29;20463;-75
2022/04/29 03:07:07;;;;;;;17.52;8.38;;;6.40;95.90;;;;;;4910891;29;20128;-75
2022/04/29 03:09:33;;;;;;;19.05;8.13;;;6.40;95.80;;;;;;4916071;29;20030;-75
2022/04/29 03:11:59;;;;;;;18.83;8.70;;;6.60;95.80;;;;;;4920492;29;20124;-76
2022/04/29 03:14:24;;;;;;;15.70;8.85;;;6.60;95.70;;;;;;4920545;29;20035;-75
2022/04/29 03:16:50;;;;;;;22.17;9.32;;;6.60;95.60;;;;;;4916991;29;20158;-75
2022/04/29 03:19:17;;;;;;;14.25;8.68;;;6.60;95.60;;;;;;4918003;29;20108;-75
2022/04/29 03:21:43;;;;;;;14.77;8.60;;;6.50;95.60;;;;;;4917939;29;20041;-75
2022/04/29 03:24:08;;;;;;;20.58;9.68;;;6.40;95.70;;;;;;4923998;29;20027;-75
2022/04/29 03:26:35;;;;;;;16.60;9.07;;;6.40;95.90;;;;;;4918472;29;20390;-75
2022/04/29 03:29:02;;;;;;;23.48;9.35;;;6.30;95.90;;;;;;4948311;28;20035;-75
2022/04/29 03:31:27;;;;;;;20.80;9.45;;;6.20;96.00;;;;;;4930657;29;20053;-75
2022/04/29 03:33:53;;;;;;;18.42;9.45;;;6.20;96.10;;;;;;4931327;28;20086;-75
2022/04/29 03:36:18;;;;;;;14.35;8.57;;;6.10;96.10;;;;;;4922457;29;20047;-75
2022/04/29 03:38:44;;;;;;;17.83;8.93;;;6.00;96.10;;;;;;4910571;29;20024;-75
2022/04/29 03:41:12;;;;;;;19.35;9.20;;;5.90;96.10;;;;;;4924639;29;20143;-75
2022/04/29 03:43:38;;;;;;;21.60;9.45;;;5.90;96.10;;;;;;4928176;29;20034;-75
2022/04/29 03:46:05;;;;;;;18.73;9.07;;;5.80;96.20;;;;;;4922119;29;20040;-75
2022/04/29 03:51:15;;;;;;;26.55;10.35;;;5.70;96.50;;;;;;4912000;29;20565;-75
2022/04/29 03:53:41;;;;;;;22.23;10.48;;;5.70;96.80;;;;;;4919670;29;20032;-75
2022/04/29 03:56:06;;;;;;;17.25;8.80;;;5.70;96.90;;;;;;4920044;29;20505;-75
2022/04/29 03:58:32;;;;;;;18.98;10.20;;;5.60;96.90;;;;;;4930941;29;20027;-75
2022/04/29 04:00:57;;;;;;;17.17;8.25;;;5.50;96.90;;;;;;4933600;29;20036;-75
2022/04/29 04:03:23;;;;;;;17.98;8.38;;;5.50;97.00;;;;;;4921546;29;20737;-75
2022/04/29 04:08:34;;;;;;;15.68;9.45;;;5.40;97.00;;;;;;4920698;29;20070;-75
2022/04/29 04:10:59;;;;;;;27.52;9.85;;;5.40;97.10;;;;;;4912883;29;20142;-75
2022/04/29 04:13:25;;;;;;;18.52;10.05;;;5.40;97.10;;;;;;4910827;29;20110;-75
2022/04/29 04:15:51;;;;;;;21.02;9.88;;;5.30;97.10;;;;;;4913337;29;20055;-75
2022/04/29 04:18:16;;;;;;;16.52;9.15;;;5.30;97.20;;;;;;4911993;29;20032;-75
2022/04/29 04:20:42;;;;;;;17.52;9.45;;;5.30;97.20;;;;;;4913224;29;20482;-75
2022/04/29 04:23:09;;;;;;;22.23;10.10;;;5.20;97.20;;;;;;4915987;29;20036;-75
2022/04/29 04:25:35;;;;;;;21.58;9.68;;;5.20;97.20;;;;;;4918095;29;20043;-75
2022/04/29 04:28:00;;;;;;;18.10;10.15;;;5.20;97.30;;;;;;4927509;29;20515;-75
2022/04/29 04:30:26;;;;;;;23.25;9.45;;;5.20;97.40;;;;;;4930779;29;20654;-75
2022/04/29 04:32:51;;;;;;;18.35;9.57;;;5.30;97.50;;;;;;4924772;28;20035;-75
2022/04/29 04:35:17;;;;;;;16.05;8.55;;;5.30;97.60;;;;;;4913768;29;20923;-75
2022/04/29 04:37:44;;;;;;;20.55;9.00;;;5.40;97.50;;;;;;4925700;28;20050;-75
2022/04/29 04:40:10;;;;;;;25.50;10.30;;;5.50;97.40;;;;;;4904435;29;20103;-75
2022/04/29 04:42:44;;;;;;;14.93;8.85;;;5.60;97.30;;;;;;4915317;29;20051;-75
2022/04/29 04:45:10;;;;;;;20.35;9.35;;;5.50;97.00;;;;;;4922755;28;20041;-75
2022/04/29 04:47:35;;;;;;;16.58;8.45;;;5.50;96.80;;;;;;4922295;29;20721;-75
2022/04/29 04:50:01;;;;;;;18.40;8.13;;;5.50;96.70;;;;;;4918655;29;20041;-75
2022/04/29 04:52:27;;;;;;;22.55;9.05;;;5.50;96.70;;;;;;4917417;29;20059;-75
2022/04/29 04:54:52;;;;;;;17.77;8.63;;;5.50;96.60;;;;;;4919560;29;20569;-75
2022/04/29 04:57:18;;;;;;;13.90;8.15;;;5.50;96.60;;;;;;4919184;29;20135;-75
2022/04/29 04:59:43;;;;;;;16.73;7.85;;;5.50;96.50;;;;;;4918041;29;20051;-75
2022/04/29 05:02:09;;;;;;;12.95;7.78;;;5.50;96.60;;;;;;4915052;29;20041;-74
2022/04/29 05:04:35;;;;;;;17.70;8.50;;;5.60;97.00;;;;;;4918671;29;20838;-75
2022/04/29 05:07:01;;;;;;;15.60;8.20;;;5.60;96.60;;;;;;4911421;29;20070;-74
2022/04/29 05:09:27;;;;;;;12.80;7.75;;;5.70;96.50;;;;;;4915328;29;20063;-75
2022/04/29 05:11:53;;;;;;;11.45;7.63;;;5.80;96.30;;;;;;4916321;29;20211;-75
2022/04/29 05:14:18;;;;;;;14.07;7.35;;;5.90;96.00;;;;;;4924983;29;20030;-76
2022/04/29 05:16:44;;;;;;;13.77;7.35;;;6.10;95.60;;;;;;4917738;29;20047;-75
2022/04/29 05:19:10;;;;;;;13.40;6.78;;;6.20;95.20;;;;;;4927043;29;20039;-75
2022/04/29 05:21:35;;;;;;;14.73;7.00;;;6.30;94.80;;;;;;4925775;28;20141;-75
2022/04/29 05:24:01;;;;;;;12.85;6.13;;;6.30;94.60;;;;;;4910404;28;20111;-75
2022/04/29 05:26:26;;;;;;;13.57;5.90;;;6.20;94.60;;;;;;4906959;29;20094;-75
2022/04/29 05:28:52;;;;;;;16.25;7.18;;;6.20;94.60;;;;;;4915311;29;20483;-75
2022/04/29 05:31:18;;;;;;;12.50;5.40;;;6.20;94.70;;;;;;4914574;29;20044;-74
2022/04/29 05:33:44;;;;;;;10.98;6.50;;;6.30;94.80;;;;;;4920098;29;20039;-75
2022/04/29 05:36:11;;;;;;;10.40;6.32;;;6.30;94.70;;;;;;4919689;29;20043;-78
2022/04/29 05:44:08;;;;;;;10.82;6.28;;;6.80;93.90;;;;;;4914967;29;20098;-77
2022/04/29 05:46:35;;;;;;;13.52;5.68;;;7.10;93.50;;;;;;4907212;29;20036;-76
2022/04/29 05:49:04;;;;;;;11.30;5.97;;;7.40;93.10;;;;;;4905469;29;20067;-76
2022/04/29 05:51:29;;;;;;;9.93;5.80;;;7.60;92.40;;;;;;4908196;29;20432;-76
2022/04/29 05:53:55;;;;;;;24.73;10.63;;;7.80;92.00;;;;;;4905891;29;20138;-76
2022/04/29 05:56:21;;;;;;;11.38;5.82;;;8.00;91.50;;;;;;4910015;29;20418;-75
2022/04/29 05:58:46;;;;;;;10.13;5.07;;;8.10;91.20;;;;;;4919003;29;20125;-75
2022/04/29 06:01:12;;;;;;;9.25;5.68;;;8.30;90.70;;;;;;4915288;29;20130;-75
2022/04/29 06:03:37;;;;;;;12.65;6.80;;;8.30;90.70;;;;;;4914263;29;20112;-75
2022/04/29 06:06:03;;;;;;;15.18;5.95;;;8.40;90.50;;;;;;4921212;29;20023;-74
2022/04/29 06:08:29;;;;;;;16.05;6.20;;;8.30;90.70;;;;;;4906725;29;20027;-75
2022/04/29 06:10:55;;;;;;;11.65;5.78;;;8.30;90.60;;;;;;4911442;29;20332;-75
2022/04/29 06:13:20;;;;;;;14.02;5.88;;;8.40;90.30;;;;;;4928090;28;20034;-75
2022/04/29 06:15:46;;;;;;;14.40;6.18;;;8.40;90.50;;;;;;4925589;28;20447;-76
2022/04/29 06:18:12;;;;;;;11.45;6.82;;;8.40;90.60;;;;;;4912793;29;20526;-77
2022/04/29 06:20:38;;;;;;;16.35;7.20;;;8.50;90.30;;;;;;4910974;29;20240;-76
2022/04/29 06:23:03;;;;;;;13.75;6.32;;;8.50;90.20;;;;;;4910590;29;20020;-75
2022/04/29 06:25:29;;;;;;;15.05;6.60;;;8.40;90.20;;;;;;4912961;29;20459;-75
2022/04/29 06:27:55;;;;;;;11.68;6.85;;;8.40;90.40;;;;;;4909490;29;20571;-75
2022/04/29 06:30:20;;;;;;;18.77;8.50;;;8.30;90.50;;;;;;4908347;29;20040;-75
2022/04/29 06:32:46;;;;;;;11.32;5.80;;;8.20;90.80;;;;;;4912925;29;20139;-75
2022/04/29 06:35:12;;;;;;;12.57;5.97;;;8.30;90.80;;;;;;4910030;29;20063;-74
2022/04/29 06:37:38;;;;;;;16.27;7.22;;;8.20;90.90;;;;;;4904158;29;20071;-75
2022/04/29 06:40:04;;;;;;;146.98;70.53;;;8.30;90.80;;;;;;4917981;29;20178;-77
2022/04/29 06:42:30;;;;;;;97.45;46.42;;;8.50;90.50;;;;;;4920326;29;20042;-76
2022/04/29 06:44:56;;;;;;;21.42;10.23;;;8.50;90.40;;;;;;4925320;28;20028;-77
2022/04/29 06:47:21;;;;;;;13.85;6.82;;;8.90;90.00;;;;;;4913114;29;20031;-77
2022/04/29 06:49:47;;;;;;;14.45;7.00;;;9.20;88.20;;;;;;4914634;29;20500;-77
2022/04/29 06:52:12;;;;;;;14.52;6.75;;;9.30;87.70;;;;;;4913319;29;20054;-78
2022/04/29 06:54:38;;;;;;;12.05;6.75;;;9.30;87.60;;;;;;4911350;29;20393;-78
2022/04/29 06:57:04;;;;;;;11.45;6.28;;;9.30;87.60;;;;;;4926956;29;20054;-78
2022/04/29 06:59:31;;;;;;;11.20;6.43;;;9.40;87.10;;;;;;4918285;29;20111;-79
2022/04/29 07:01:57;;;;;;;14.88;6.53;;;9.50;86.70;;;;;;4914332;29;20027;-80
2022/04/29 07:04:28;;;;;;;12.73;6.68;;;9.60;86.10;;;;;;4917036;29;20111;-77
2022/04/29 07:06:54;;;;;;;12.85;6.57;;;9.70;86.40;;;;;;4919661;29;20174;-76
2022/04/29 07:09:20;;;;;;;11.85;6.22;;;9.90;84.10;;;;;;4925771;29;20062;-77
2022/04/29 07:11:46;;;;;;;9.80;6.00;;;10.00;85.10;;;;;;4925207;29;20430;-78
2022/04/29 07:14:13;;;;;;;13.32;5.85;;;10.00;85.50;;;;;;4921470;29;20403;-77
2022/04/29 07:16:40;;;;;;;10.18;6.40;;;10.10;82.10;;;;;;4921803;29;20075;-77
2022/04/29 07:19:06;;;;;;;12.07;7.25;;;10.20;83.40;;;;;;4922023;29;20024;-77
2022/04/29 07:21:31;;;;;;;13.00;5.82;;;10.40;82.00;;;;;;4919233;29;20118;-78
2022/04/29 07:23:59;;;;;;;13.18;6.53;;;10.50;82.70;;;;;;4920290;29;20056;-78
2022/04/29 07:26:25;;;;;;;11.65;5.22;;;10.60;81.40;;;;;;4920285;29;20159;-77
2022/04/29 07:28:50;;;;;;;11.90;5.00;;;10.60;78.70;;;;;;4915724;29;20439;-77
2022/04/29 07:31:16;;;;;;;8.75;5.00;;;10.60;79.20;;;;;;4909024;29;20107;-79
2022/04/29 07:33:41;;;;;;;11.05;4.95;;;10.80;78.40;;;;;;4931171;28;20107;-78
2022/04/29 07:41:45;;;;;;;8.65;3.35;;;11.00;78.00;;;;;;4930863;29;20149;-81
2022/04/29 07:44:12;;;;;;;7.55;3.10;;;11.30;73.10;;;;;;4932811;28;20490;-75
2022/04/29 07:46:38;;;;;;;4.07;2.92;;;12.30;71.00;;;;;;4916030;29;20043;-80
2022/04/29 07:49:05;;;;;;;5.95;2.13;;;15.60;64.10;;;;;;4922087;29;20729;-81
2022/04/29 07:56:47;;;;;;;8.25;2.25;;;23.30;39.50;;;;;;4928088;23;20509;-72
2022/04/29 07:59:13;;;;;;;3.60;2.03;;;25.10;37.20;;;;;;4901447;29;20032;-72
2022/04/29 08:01:43;;;;;;;12.18;2.20;;;26.90;32.90;;;;;;4908428;29;20028;-72
2022/04/29 08:04:11;;;;;;;5.13;2.17;;;28.00;30.80;;;;;;4908882;29;20457;-72
2022/04/29 08:06:36;;;;;;;3.55;2.08;;;27.50;30.30;;;;;;4894746;29;20043;-73
2022/04/29 08:09:02;;;;;;;5.70;1.92;;;27.80;30.60;;;;;;4891138;29;20040;-72
2022/04/29 08:11:28;;;;;;;5.22;2.22;;;28.40;29.30;;;;;;4880909;29;20633;-71
2022/04/29 08:13:56;;;;;;;4.32;2.38;;;28.70;29.70;;;;;;4883304;29;20028;-72
2022/04/29 08:16:21;;;;;;;4.25;1.60;;;28.50;27.90;;;;;;4878307;29;20052;-72
2022/04/29 08:18:47;;;;;;;6.88;2.05;;;28.40;29.70;;;;;;4886434;29;20088;-72
2022/04/29 08:21:13;;;;;;;1.63;1.50;;;27.90;27.90;;;;;;4893389;29;20039;-73
2022/04/29 08:23:38;;;;;;;4.38;2.03;;;28.60;29.90;;;;;;4897468;29;20036;-72
2022/04/29 08:26:04;;;;;;;3.42;1.98;;;29.10;29.40;;;;;;4886499;29;20157;-71
2022/04/29 08:28:30;;;;;;;3.42;1.50;;;29.70;28.00;;;;;;4892057;29;20286;-70
2022/04/29 08:30:56;;;;;;;3.13;1.60;;;30.70;26.70;;;;;;4897889;29;20039;-70
2022/04/29 08:33:21;;;;;;;4.50;1.70;;;30.10;27.90;;;;;;4896702;29;20542;-69
2022/04/29 08:35:47;;;;;;;5.60;1.67;;;28.30;26.60;;;;;;4887737;29;20140;-69
2022/04/29 08:38:13;;;;;;;4.28;1.45;;;28.20;28.20;;;;;;4897695;29;20080;-69
2022/04/29 08:40:44;;;;;;;3.75;1.40;;;28.80;29.60;;;;;;4894691;29;20031;-68
2022/04/29 08:43:14;;;;;;;4.75;1.48;;;29.10;28.10;;;;;;4890190;29;20703;-70
2022/04/29 08:45:42;;;;;;;2.28;1.30;;;29.60;25.20;;;;;;4889437;29;20037;-70
2022/04/29 08:48:08;;;;;;;3.70;1.77;;;29.10;28.10;;;;;;4892825;29;20099;-70
2022/04/29 08:50:35;;;;;;;3.88;1.55;;;28.20;26.10;;;;;;4899899;29;20029;-71
2022/04/29 08:53:01;;;;;;;5.10;1.50;;;27.30;26.50;;;;;;4898106;29;20028;-69
2022/04/29 09:01:01;;;;;;;3.65;1.98;;;26.30;28.50;;;;;;4900492;29;20039;-71
2022/04/29 09:03:26;;;;;;;3.53;1.55;;;25.50;28.90;;;;;;4906758;29;20036;-70
2022/04/29 09:05:52;;;;;;;3.40;1.65;;;25.00;28.90;;;;;;4892571;29;20107;-71
2022/04/29 09:08:20;;;;;;;6.20;1.48;;;24.90;29.80;;;;;;4896915;29;20043;-70
2022/04/29 09:10:52;;;;;;;5.43;2.20;;;26.10;28.90;;;;;;4907689;29;20495;-70
2022/04/29 09:13:24;;;;;;;2.40;1.73;;;26.40;26.30;;;;;;4886833;29;20574;-71
2022/04/29 09:15:58;;;;;;;3.22;1.60;;;26.70;28.00;;;;;;4898968;29;20043;-71
2022/04/29 09:18:42;;;;;;;2.05;1.45;;;26.10;28.10;;;;;;4906336;29;20050;-71
2022/04/29 09:21:18;;;;;;;2.67;1.20;;;26.70;27.00;;;;;;4893376;29;20075;-70
2022/04/29 09:23:46;;;;;;;3.20;1.45;;;27.00;26.80;;;;;;4898338;29;20032;-70
2022/04/29 09:26:24;;;;;;;3.10;1.50;;;26.20;28.00;;;;;;4901389;29;22092;-71
2022/04/29 09:28:53;;;;;;;4.15;1.50;;;25.30;26.90;;;;;;4894201;29;20729;-70
2022/04/29 09:31:19;;;;;;;5.53;1.92;;;24.80;26.90;;;;;;4903954;29;20029;-71
2022/04/29 09:33:54;;;;;;;2.55;1.45;;;25.20;27.40;;;;;;4901383;29;20151;-71
2022/04/29 09:36:25;;;;;;;4.88;1.55;;;25.40;29.40;;;;;;4887974;29;20483;-71
2022/04/29 09:41:39;;;;;;;2.50;1.25;;;25.50;28.30;;;;;;4898155;29;20043;-70
2022/04/29 09:44:04;;;;;;;5.50;1.55;;;25.00;30.00;;;;;;4889632;29;20055;-71
2022/04/29 09:46:31;;;;;;;3.70;1.60;;;24.60;29.80;;;;;;4897952;29;20251;-70
2022/04/29 09:49:09;;;;;;;4.10;1.85;;;25.30;32.90;;;;;;4893720;29;20554;-71
2022/04/29 09:51:43;;;;;;;3.97;1.33;;;25.30;28.30;;;;;;4898713;29;20044;-71
2022/04/29 09:54:16;;;;;;;4.80;1.20;;;25.00;30.20;;;;;;4896258;29;20043;-71
2022/04/29 09:56:47;;;;;;;4.22;1.85;;;24.90;28.80;;;;;;4892898;29;20067;-70
2022/04/29 09:59:14;;;;;;;5.53;1.35;;;24.60;30.20;;;;;;4887210;29;20119;-71
2022/04/29 10:01:41;;;;;;;5.38;1.95;;;24.80;29.30;;;;;;4889792;29;20599;-71
2022/04/29 10:04:08;;;;;;;4.15;1.70;;;25.20;29.30;;;;;;4894098;29;20412;-71
2022/04/29 10:06:36;;;;;;;5.43;1.90;;;26.10;27.40;;;;;;4895223;29;20069;-71
2022/04/29 10:09:03;;;;;;;4.72;1.45;;;25.60;25.80;;;;;;4888354;29;20027;-71
2022/04/29 10:11:32;;;;;;;3.67;1.23;;;25.80;27.50;;;;;;4898900;29;20598;-71
2022/04/29 10:14:02;;;;;;;2.00;1.30;;;26.00;30.00;;;;;;4893718;29;20028;-70
2022/04/29 10:16:31;;;;;;;2.35;1.52;;;25.20;27.00;;;;;;4898440;29;20066;-71
2022/04/29 10:21:50;;;;;;;3.72;1.33;;;25.30;30.70;;;;;;4902259;29;20043;-70
2022/04/29 10:24:16;;;;;;;2.85;1.38;;;25.60;29.90;;;;;;4894690;29;20118;-71
2022/04/29 10:26:42;;;;;;;3.72;1.60;;;26.20;30.40;;;;;;4893770;29;20068;-71
2022/04/29 10:29:09;;;;;;;3.00;1.23;;;25.60;27.90;;;;;;4889982;29;20160;-71
2022/04/29 10:31:34;;;;;;;1.88;1.58;;;24.00;29.30;;;;;;4894817;29;20427;-72
2022/04/29 10:34:29;;;;;;;3.85;1.60;;;22.90;30.70;;;;;;4895657;29;20043;-72
2022/04/29 10:36:55;;;;;;;2.33;1.38;;;22.70;34.40;;;;;;4898159;29;20071;-72
2022/04/29 10:39:22;;;;;;;3.80;1.55;;;23.60;32.70;;;;;;4897327;29;20068;-73
2022/04/29 10:41:58;;;;;;;3.20;1.73;;;24.00;29.30;;;;;;4892780;29;20775;-71
2022/04/29 10:44:24;;;;;;;3.30;1.80;;;23.90;29.30;;;;;;4883873;29;20059;-72
2022/04/29 10:46:50;;;;;;;5.03;1.98;;;24.80;32.50;;;;;;4896687;29;20032;-72
2022/04/29 10:49:30;;;;;;;4.35;1.83;;;24.60;27.30;;;;;;4888928;29;20123;-71
2022/04/29 10:51:59;;;;;;;3.83;2.00;;;23.10;31.40;;;;;;4896176;29;20040;-72
2022/04/29 10:54:34;;;;;;;3.67;1.33;;;22.80;33.60;;;;;;4890366;29;20047;-72
2022/04/29 10:57:04;;;;;;;3.55;1.70;;;23.50;31.90;;;;;;4912800;29;20062;-71
2022/04/29 10:59:48;;;;;;;6.03;1.83;;;23.90;32.30;;;;;;4897864;29;20610;-72
2022/04/29 11:02:29;;;;;;;5.43;1.88;;;22.40;32.70;;;;;;4894270;29;20463;-72
2022/04/29 11:04:55;;;;;;;;;;;22.20;33.50;;;;;;4897824;29;20032;-72
2022/04/29 11:07:39;;;;;;;4.88;1.80;;;22.40;32.70;;;;;;4901539;29;19915;-72
2022/04/29 11:10:10;;;;;;;3.85;1.70;;;22.30;34.50;;;;;;4901725;29;20095;-72
2022/04/29 11:12:36;;;;;;;3.90;1.77;;;21.50;35.50;;;;;;4902475;29;20150;-71
2022/04/29 11:15:09;;;;;;;3.40;2.00;;;20.30;35.70;;;;;;4906414;29;20028;-71
2022/04/29 11:17:36;;;;;;;4.05;1.63;;;19.60;40.10;;;;;;4906584;29;20491;-72
2022/04/29 11:20:22;;;;;;;9.18;2.17;;;20.50;38.90;;;;;;4906537;29;20090;-71
2022/04/29 11:25:50;;;;;;;5.50;1.95;;;22.10;34.30;;;;;;4905391;29;20074;-72
2022/04/29 11:28:16;;;;;;;8.57;2.03;;;21.90;32.80;;;;;;4901892;29;20055;-72
2022/04/29 11:30:42;;;;;;;2.33;1.83;;;21.30;33.10;;;;;;4907545;29;20028;-71
2022/04/29 11:33:08;;;;;;;4.47;1.80;;;20.90;40.50;;;;;;4906447;29;20039;-72
2022/04/29 11:35:34;;;;;;;2.97;2.00;;;20.70;35.10;;;;;;4902424;29;20039;-73
2022/04/29 11:38:00;;;;;;;2.63;1.90;;;19.70;40.30;;;;;;4896679;29;20032;-71
2022/04/29 11:40:26;;;;;;;2.45;1.52;;;20.00;34.40;;;;;;4898831;29;20771;-72
2022/04/29 11:42:54;;;;;;;4.65;1.80;;;19.80;34.90;;;;;;4895675;29;20463;-71
2022/04/29 11:45:24;;;;;;;4.45;2.38;;;20.20;38.70;;;;;;4896013;29;20127;-72
2022/04/29 11:47:50;;;;;;;3.72;1.70;;;19.40;34.90;;;;;;4900380;29;20028;-72
2022/04/29 11:50:16;;;;;;;3.58;2.00;;;19.40;37.80;;;;;;4896891;29;20035;-71
2022/04/29 11:52:41;;;;;;;2.47;2.20;;;19.40;39.30;;;;;;4886893;29;20421;-72
2022/04/29 11:55:14;;;;;;;2.85;2.38;;;19.40;40.40;;;;;;4894148;29;20032;-72
2022/04/29 11:57:50;;;;;;;4.97;2.25;;;19.30;42.10;;;;;;4889300;29;20401;-71
2022/04/29 12:00:34;;;;;;;3.88;2.42;;;19.60;36.20;;;;;;4888132;29;21137;-72
2022/04/29 12:03:04;;;;;;;3.80;1.90;;;19.70;37.70;;;;;;4884400;29;20036;-72
2022/04/29 12:05:32;;;;;;;1.95;1.85;;;19.50;36.90;;;;;;4543595;28;10001198;-73
2022/04/29 12:08:00;;;;;;;5.43;2.10;;;19.10;38.20;;;;;;4897971;29;20028;-72
2022/04/29 12:10:31;;;;;;;4.25;1.92;;;19.70;39.40;;;;;;4888710;29;20048;-72
2022/04/29 12:13:02;;;;;;;3.45;2.20;;;19.30;39.40;;;;;;4891135;29;20032;-72
2022/04/29 12:15:38;;;;;;;2.65;2.22;;;18.60;39.20;;;;;;4880995;29;20092;-71
2022/04/29 12:18:10;;;;;;;3.35;2.30;;;17.90;42.90;;;;;;4890341;29;20042;-71
2022/04/29 12:20:39;;;;;;;2.58;2.35;;;17.80;42.60;;;;;;4897373;29;20044;-71
2022/04/29 12:23:09;;;;;;;5.38;2.53;;;17.90;39.40;;;;;;4892083;29;20036;-71
2022/04/29 12:25:42;;;;;;;3.42;1.98;;;18.00;38.80;;;;;;4894071;29;20048;-71
2022/04/29 12:28:12;;;;;;;3.60;2.38;;;18.10;41.40;;;;;;4890879;29;20032;-71
2022/04/29 12:36:46;;;;;;;2.83;2.13;;;18.60;43.50;;;;;;4900084;29;20575;-71
2022/04/29 12:39:13;;;;;;;4.72;3.22;;;18.10;39.00;;;;;;4898411;29;20092;-72
2022/04/29 12:41:39;;;;;;;3.47;2.55;;;17.60;41.60;;;;;;4901416;29;20119;-74
2022/04/29 12:45:03;;;;;;;4.07;2.17;;;17.90;40.60;;;;;;4899885;29;20534;-70
2022/04/29 12:46:59;;;;;;;3.83;2.13;;;17.90;42.70;;;;;;4900721;29;20028;-70
2022/04/29 12:49:24;;;;;;;4.57;2.20;;;18.10;41.60;;;;;;4899543;29;20039;-71
2022/04/29 12:52:01;;;;;;;3.47;2.20;;;18.50;43.90;;;;;;4897812;29;20028;-72
2022/04/29 12:54:27;;;;;;;4.18;3.05;;;18.70;41.90;;;;;;4899784;29;20645;-72
2022/04/29 12:56:53;;;;;;;2.55;2.33;;;19.10;39.70;;;;;;4896282;29;20475;-72
2022/04/29 12:59:24;;;;;;;5.90;2.58;;;19.10;40.20;;;;;;4895391;29;20040;-70
2022/04/29 13:01:50;;;;;;;6.20;2.85;;;18.90;44.00;;;;;;4895589;29;20526;-71
2022/04/29 13:04:16;;;;;;;6.00;2.88;;;18.80;40.40;;;;;;4897814;29;20058;-72
2022/04/29 13:06:42;;;;;;;5.05;2.38;;;18.50;40.00;;;;;;4899502;29;20107;-70
2022/04/29 13:09:07;;;;;;;3.47;3.03;;;18.00;43.60;;;;;;4893515;29;20144;-70
2022/04/29 13:11:33;;;;;;;4.82;2.75;;;17.80;41.10;;;;;;4897777;29;20127;-70
2022/04/29 13:13:59;;;;;;;4.40;2.47;;;17.90;41.80;;;;;;4897676;29;20123;-70
2022/04/29 13:16:25;;;;;;;6.53;3.10;;;18.10;42.40;;;;;;4897813;29;20119;-70
2022/04/29 13:18:51;;;;;;;5.60;2.55;;;17.80;42.50;;;;;;4899002;29;20474;-70
2022/04/29 13:21:17;;;;;;;6.72;3.75;;;17.70;41.10;;;;;;4893795;29;20047;-70
2022/04/29 13:23:44;;;;;;;4.53;3.45;;;17.60;40.90;;;;;;4895761;29;20039;-70
2022/04/29 13:26:13;;;;;;;5.47;3.15;;;17.50;41.30;;;;;;4892249;29;20676;-70
2022/04/29 13:28:39;;;;;;;5.32;3.13;;;17.50;41.80;;;;;;4894416;29;20087;-70